Time;durP1;ratioP1;P1;durP2;ratioP2;P2;SDS_P1;SDS_P2;PMS_P1;PMS_P2;Temp;Humidity;BMP_temperature;BMP_pressure;BME280_temperature;BME280_humidity;BME280_pressure;Samples;Min_cycle;Max_cycle;Signal;HPM_P1;HPM_P2
2023/01/20 00:00:30;;;;;;;11.77;5.40;;;;;;;-146.25;98.80;52516.22;2081832;28;39470;-78
2023/01/20 00:01:33;;;;;;;15.00;6.10;;;;;;;-146.25;99.50;52483.78;2081785;28;34415;-78
2023/01/20 00:02:35;;;;;;;18.50;6.75;;;;;;;-146.25;99.44;52491.88;2073654;28;37789;-78
2023/01/20 00:03:39;;;;;;;15.55;6.40;;;;;;;-146.25;99.39;52477.69;2065487;28;39347;-79
2023/01/20 00:04:43;;;;;;;12.75;6.03;;;;;;;-146.25;99.39;52510.13;2074081;28;36803;-77
2023/01/20 00:05:51;;;;;;;10.43;6.22;;;;;;;-146.25;99.58;52500.00;2073419;28;39334;-77
2023/01/20 00:06:53;;;;;;;13.20;6.32;;;;;;;-146.25;99.29;52489.84;2074727;28;44340;-77
2023/01/20 00:07:55;;;;;;;14.60;5.90;;;;;;;-146.25;99.75;52457.41;2081703;28;38220;-77
2023/01/20 00:08:59;;;;;;;14.70;6.90;;;;;;;-146.25;99.44;52461.47;2081629;28;37501;-78
2023/01/20 00:10:01;;;;;;;17.05;7.03;;;;;;;-146.25;100.00;52469.56;2081684;28;37001;-78
2023/01/20 00:11:10;;;;;;;14.77;6.90;;;;;;;-146.25;99.77;52481.75;2082284;28;20051;-78
2023/01/20 00:12:11;;;;;;;13.05;7.05;;;;;;;-146.25;100.00;52487.81;2082031;28;39860;-78
2023/01/20 00:13:13;;;;;;;13.07;7.13;;;;;;;-146.25;99.65;52481.75;2081533;28;37129;-77
2023/01/20 00:14:15;;;;;;;17.10;7.57;;;;;;;-146.25;99.80;52504.03;2083127;28;20042;-78
2023/01/20 00:15:17;;;;;;;14.00;6.90;;;;;;;-146.25;100.00;52471.59;2082232;28;37130;-78
2023/01/20 00:16:18;;;;;;;17.13;8.02;;;;;;;-146.25;99.85;52467.56;2072738;28;38925;-77
2023/01/20 00:17:20;;;;;;;18.45;8.18;;;;;;;-146.25;100.00;52512.16;2073627;28;37090;-78
2023/01/20 00:18:22;;;;;;;13.98;7.53;;;;;;;-146.25;100.00;52550.69;2081960;28;42755;-78
2023/01/20 00:19:23;;;;;;;14.65;7.63;;;;;;;-146.25;100.00;52495.94;2082171;28;32520;-78
2023/01/20 00:20:25;;;;;;;15.45;8.52;;;;;;;-146.25;100.00;52500.00;2082115;28;38885;-78
2023/01/20 00:21:27;;;;;;;15.57;7.78;;;;;;;-146.25;99.95;52500.00;2081783;28;38700;-77
2023/01/20 00:22:28;;;;;;;16.65;7.88;;;;;;;-146.25;100.00;52489.84;2082694;28;24833;-77
2023/01/20 00:23:31;;;;;;;20.90;9.32;;;;;;;-146.25;100.00;52491.88;2081711;28;41174;-77
2023/01/20 00:24:35;;;;;;;17.20;8.18;;;;;;;-146.25;100.00;52497.97;2081691;28;38282;-77
2023/01/20 00:25:37;;;;;;;18.63;7.80;;;;;;;-146.25;100.00;52514.19;2081920;28;37932;-77
2023/01/20 00:26:39;;;;;;;18.83;9.02;;;;;;;-146.25;100.00;52526.34;2081910;28;40982;-77
2023/01/20 00:27:43;;;;;;;18.15;9.32;;;;;;;-146.25;100.00;52506.06;2082665;28;22983;-77
2023/01/20 00:28:46;;;;;;;15.68;8.98;;;;;;;-146.25;100.00;52477.69;2082541;28;25520;-77
2023/01/20 00:29:49;;;;;;;20.10;9.65;;;;;;;-146.25;100.00;52493.91;2072886;28;39825;-77
2023/01/20 00:30:51;;;;;;;20.58;9.85;;;;;;;-146.25;100.00;52483.78;2073165;28;37154;-77
2023/01/20 00:31:52;;;;;;;23.73;9.98;;;;;;;-146.25;100.00;52485.81;2080813;28;39829;-77
2023/01/20 00:32:54;;;;;;;19.02;9.95;;;;;;;-146.25;100.00;52500.00;2082031;28;37966;-77
2023/01/20 00:33:59;;;;;;;17.17;10.05;;;;;;;-146.25;100.00;52500.00;2082045;28;37965;-77
2023/01/20 00:35:00;;;;;;;21.50;10.00;;;;;;;-146.25;100.00;52520.28;2081910;28;39032;-77
2023/01/20 00:36:02;;;;;;;22.48;10.77;;;;;;;-146.25;100.00;52512.16;2082307;28;27206;-77
2023/01/20 00:37:04;;;;;;;27.58;11.68;;;;;;;-146.25;100.00;52502.03;2082381;28;35258;-77
2023/01/20 00:38:08;;;;;;;22.33;11.55;;;;;;;-146.25;100.00;52508.09;2081878;28;38793;-77
2023/01/20 00:39:10;;;;;;;26.17;14.23;;;;;;;-146.25;100.00;52489.84;2082820;28;20033;-77
2023/01/20 00:40:12;;;;;;;28.73;14.82;;;;;;;-146.25;100.00;52526.34;2081758;28;40239;-76
2023/01/20 00:41:15;;;;;;;27.75;15.10;;;;;;;-146.25;100.00;52526.34;2082808;28;20860;-76
2023/01/20 00:42:16;;;;;;;25.02;13.43;;;;;;;-146.25;100.00;52548.66;2081843;28;41516;-76
2023/01/20 00:43:18;;;;;;;30.25;15.18;;;;;;;-146.25;100.00;52500.00;2072578;28;39637;-76
2023/01/20 00:44:19;;;;;;;28.17;15.05;;;;;;;-146.25;100.00;52481.75;2074042;28;20038;-76
2023/01/20 00:45:21;;;;;;;30.52;16.85;;;;;;;-146.25;100.00;52497.97;2082138;28;41162;-76
2023/01/20 00:46:23;;;;;;;36.72;18.40;;;;;;;-146.25;100.00;52512.16;2081213;28;41563;-77
2023/01/20 00:47:27;;;;;;;32.25;17.55;;;;;;;-146.25;100.00;52510.13;2082126;28;37420;-76
2023/01/20 00:48:28;;;;;;;33.67;19.63;;;;;;;-146.25;100.00;52487.81;2081421;28;40868;-76
2023/01/20 00:49:30;;;;;;;35.63;19.27;;;;;;;-146.25;100.00;52489.84;2082901;28;20038;-76
2023/01/20 00:50:32;;;;;;;35.80;18.67;;;;;;;-146.25;100.00;52510.13;2081631;28;41516;-76
2023/01/20 00:51:33;;;;;;;37.25;20.85;;;;;;;-146.25;100.00;52502.03;2081261;28;42182;-76
2023/01/20 00:52:38;;;;;;;37.67;20.20;;;;;;;-146.25;100.00;52516.22;2082704;28;20034;-76
2023/01/20 00:53:40;;;;;;;38.22;19.88;;;;;;;-146.25;100.00;52558.78;2082676;28;20026;-76
2023/01/20 00:54:42;;;;;;;43.65;21.42;;;;;;;-146.25;100.00;52467.56;2082119;28;37215;-76
2023/01/20 00:55:44;;;;;;;39.03;22.33;;;;;;;-146.25;100.00;52502.03;2081794;28;37637;-76
2023/01/20 00:56:46;;;;;;;39.83;21.92;;;;;;;-146.25;100.00;52502.03;2081716;28;43439;-76
2023/01/20 00:57:48;;;;;;;44.10;22.92;;;;;;;-146.25;100.00;52500.00;2081630;28;36774;-76
2023/01/20 00:58:49;;;;;;;44.03;23.95;;;;;;;-146.25;100.00;52487.81;2081838;28;36641;-77
2023/01/20 00:59:51;;;;;;;44.28;24.25;;;;;;;-146.25;100.00;52522.28;2081869;28;42242;-76
2023/01/20 01:00:54;;;;;;;48.15;24.27;;;;;;;-146.25;100.00;52491.88;2080686;28;39509;-76
2023/01/20 01:01:56;;;;;;;44.97;24.15;;;;;;;-146.25;100.00;52508.09;2081913;28;37813;-76
2023/01/20 01:02:58;;;;;;;53.47;25.55;;;;;;;-146.25;100.00;52504.03;2082441;28;40086;-76
2023/01/20 01:04:00;;;;;;;50.92;25.98;;;;;;;-146.25;100.00;52548.66;2072971;28;40325;-76
2023/01/20 01:05:02;;;;;;;52.83;27.63;;;;;;;-146.25;100.00;52514.19;2073081;28;40207;-76
2023/01/20 01:06:11;;;;;;;57.60;28.10;;;;;;;-146.25;100.00;52528.38;2072821;28;34554;-76
2023/01/20 01:07:13;;;;;;;46.70;26.30;;;;;;;-146.25;100.00;52500.00;2073861;28;39768;-76
2023/01/20 01:08:14;;;;;;;52.15;27.42;;;;;;;-146.25;100.00;52512.16;2073000;28;39010;-76
2023/01/20 01:09:16;;;;;;;51.97;28.38;;;;;;;-146.25;100.00;52493.91;2070949;28;38498;-76
2023/01/20 01:10:18;;;;;;;51.67;28.95;;;;;;;-146.25;100.00;52502.03;2079978;28;40116;-76
2023/01/20 01:11:20;;;;;;;58.85;30.10;;;;;;;-146.25;100.00;52526.34;2080515;28;37349;-76
2023/01/20 01:12:21;;;;;;;67.55;31.10;;;;;;;-146.25;100.00;52493.91;2080210;28;38845;-76
2023/01/20 01:13:23;;;;;;;64.55;30.50;;;;;;;-146.25;100.00;52483.78;2080534;28;39531;-76
2023/01/20 01:14:25;;;;;;;67.18;31.65;;;;;;;-146.25;100.00;52506.06;2080506;28;38194;-76
2023/01/20 01:15:27;;;;;;;62.83;31.45;;;;;;;-146.25;100.00;52520.28;2080291;28;40344;-76
2023/01/20 01:16:29;;;;;;;60.55;30.02;;;;;;;-146.25;100.00;52497.97;2080240;28;41635;-76
2023/01/20 01:17:31;;;;;;;65.82;32.75;;;;;;;-146.25;100.00;52502.03;2080554;28;38112;-75
2023/01/20 01:18:32;;;;;;;61.70;32.20;;;;;;;-146.25;100.00;52500.00;2080301;28;39185;-76
2023/01/20 01:19:34;;;;;;;64.60;32.22;;;;;;;-146.25;100.00;52522.28;2071940;28;39581;-76
2023/01/20 01:20:38;;;;;;;62.75;30.92;;;;;;;-146.25;100.00;52502.03;2064344;28;20042;-76
2023/01/20 01:21:40;;;;;;;68.22;33.25;;;;;;;-146.25;100.00;52497.97;2073035;28;20034;-75
2023/01/20 01:22:44;;;;;;;59.40;31.20;;;;;;;-146.25;100.00;52518.25;2071467;28;39192;-75
2023/01/20 01:23:46;;;;;;;64.55;31.15;;;;;;;-146.25;100.00;52495.94;2073139;28;20101;-75
2023/01/20 01:24:48;;;;;;;68.15;32.72;;;;;;;-146.25;100.00;52483.78;2079678;28;40348;-75
2023/01/20 01:25:52;;;;;;;67.07;31.65;;;;;;;-146.25;100.00;52538.53;2080489;28;40219;-75
2023/01/20 01:26:53;;;;;;;70.35;32.80;;;;;;;-146.25;100.00;52489.84;2080320;28;37399;-75
2023/01/20 01:27:55;;;;;;;64.88;33.13;;;;;;;-146.25;100.00;52506.06;2080593;28;38314;-75
2023/01/20 01:28:58;;;;;;;72.97;33.90;;;;;;;-146.25;100.00;52493.91;2080322;28;36893;-75
2023/01/20 01:29:59;;;;;;;74.40;35.28;;;;;;;-146.25;100.00;52506.06;2081633;28;20139;-75
2023/01/20 01:31:06;;;;;;;74.03;35.47;;;;;;;-146.25;100.00;52493.91;2079803;28;38428;-76
2023/01/20 01:32:08;;;;;;;67.80;34.28;;;;;;;-146.25;100.00;52514.19;2079836;28;41151;-75
2023/01/20 01:33:09;;;;;;;67.30;33.63;;;;;;;-146.25;100.00;52514.19;2079525;28;41242;-75
2023/01/20 01:34:11;;;;;;;72.53;35.30;;;;;;;-146.25;100.00;52477.69;2080556;28;41213;-75
2023/01/20 01:35:13;;;;;;;78.82;35.40;;;;;;;-146.25;100.00;52528.38;2080319;28;40564;-75
2023/01/20 01:36:16;;;;;;;79.68;35.92;;;;;;;-146.25;100.00;52487.81;2080523;28;39403;-75
2023/01/20 01:37:18;;;;;;;79.32;35.47;;;;;;;-146.25;100.00;52489.84;2079551;28;40043;-76
2023/01/20 01:38:25;;;;;;;74.00;35.00;;;;;;;-146.25;100.00;52495.94;2079840;28;38734;-75
2023/01/20 01:39:27;;;;;;;82.45;35.33;;;;;;;-146.25;100.00;52522.28;2080342;28;41065;-75
2023/01/20 01:40:29;;;;;;;80.72;35.47;;;;;;;-146.25;100.00;52481.75;2079857;28;40962;-76
2023/01/20 01:41:31;;;;;;;83.50;38.05;;;;;;;-146.25;100.00;52506.06;2071464;28;39248;-75
2023/01/20 01:42:35;;;;;;;76.43;34.97;;;;;;;-146.25;100.00;52487.81;2071742;28;39002;-75
2023/01/20 01:43:38;;;;;;;83.18;36.03;;;;;;;-146.25;100.00;52512.16;2071322;28;38898;-75
2023/01/20 01:45:10;;;;;;;81.47;35.58;;;;;;;-146.25;100.00;52512.16;2063448;28;43497;-75
2023/01/20 01:46:12;;;;;;;77.00;34.15;;;;;;;-146.25;100.00;52487.81;2076112;28;39966;-75
2023/01/20 01:47:14;;;;;;;84.45;35.80;;;;;;;-146.25;100.00;52491.88;2079646;28;41175;-75
2023/01/20 01:48:20;;;;;;;75.88;34.53;;;;;;;-146.25;100.00;52524.31;2080509;28;38723;-75
2023/01/20 01:49:27;;;;;;;78.20;34.55;;;;;;;-146.25;100.00;52481.75;2079571;28;40275;-75
2023/01/20 01:50:35;;;;;;;77.93;35.20;;;;;;;-146.25;100.00;52520.28;2080040;28;38699;-75
2023/01/20 01:51:45;;;;;;;82.07;34.15;;;;;;;-146.25;100.00;52471.59;2079760;28;39444;-76
2023/01/20 01:52:51;;;;;;;62.53;28.00;;;;;;;-146.25;100.00;52526.34;2081275;28;20041;-76
2023/01/20 01:54:07;;;;;;;83.10;34.13;;;;;;;-146.25;100.00;52510.13;2070805;28;40516;-76
2023/01/20 01:55:10;;;;;;;78.82;32.80;;;;;;;-146.25;100.00;52522.28;2074100;28;33771;-74
2023/01/20 01:56:14;;;;;;;79.45;34.28;;;;;;;-146.25;100.00;52506.06;2079752;28;38261;-74
2023/01/20 01:57:15;;;;;;;84.25;34.97;;;;;;;-146.25;100.00;52489.84;2079498;28;43177;-74
2023/01/20 01:58:23;;;;;;;81.72;35.47;;;;;;;-146.25;100.00;52491.88;2071685;28;22376;-74
2023/01/20 01:59:25;;;;;;;76.72;33.40;;;;;;;-146.25;100.00;52467.56;2072362;28;42731;-74
2023/01/20 02:00:29;;;;;;;80.70;33.70;;;;;;;-146.25;100.00;52491.88;2071689;28;31425;-76
2023/01/20 02:01:35;;;;;;;78.38;34.53;;;;;;;-146.25;100.00;52532.44;2071123;28;39456;-76
2023/01/20 02:02:37;;;;;;;77.28;34.40;;;;;;;-146.25;100.00;52489.84;2071593;28;28594;-76
2023/01/20 02:03:54;;;;;;;74.60;33.30;;;;;;;-146.25;100.00;52481.75;2071305;28;40489;-75
2023/01/20 02:04:59;;;;;;;80.20;31.35;;;;;;;-146.25;100.00;52528.38;2079891;28;39046;-75
2023/01/20 02:06:03;;;;;;;73.55;32.15;;;;;;;-146.25;100.00;52546.63;2079482;28;38991;-75
2023/01/20 02:07:15;;;;;;;77.43;33.17;;;;;;;-146.25;100.00;52516.22;2072122;28;20045;-75
2023/01/20 02:08:18;;;;;;;76.78;32.08;;;;;;;-146.25;100.00;52510.13;2072811;28;38745;-75
2023/01/20 02:09:21;;;;;;;73.57;30.80;;;;;;;-146.25;100.00;52483.78;2081244;28;20050;-75
2023/01/20 02:10:22;;;;;;;76.18;31.27;;;;;;;-146.25;100.00;52500.00;2079264;28;39104;-75
2023/01/20 02:11:24;;;;;;;75.22;31.50;;;;;;;-146.25;100.00;52495.94;2079297;28;39993;-75
2023/01/20 02:12:28;;;;;;;73.88;31.63;;;;;;;-146.25;100.00;52497.97;2080639;28;20909;-75
2023/01/20 02:13:29;;;;;;;75.32;31.20;;;;;;;-146.25;100.00;52506.06;2080302;28;40444;-75
2023/01/20 02:14:41;;;;;;;73.60;30.50;;;;;;;-146.25;100.00;52502.03;2080488;28;20862;-75
2023/01/20 02:16:13;;;;;;;65.70;30.27;;;;;;;-146.25;100.00;52520.28;2080300;28;39171;-75
2023/01/20 02:17:49;;;;;;;69.40;30.10;;;;;;;-146.25;100.00;52502.03;2080797;28;39795;-75
2023/01/20 02:19:27;;;;;;;66.57;28.55;;;;;;;-146.25;100.00;52524.31;2080241;28;38443;-75
2023/01/20 02:21:14;;;;;;;62.45;28.48;;;;;;;-146.25;100.00;52524.31;2070109;28;44070;-74
2023/01/20 02:22:40;;;;;;;59.17;27.33;;;;;;;-146.25;100.00;52516.22;2077963;28;39287;-76
2023/01/20 02:23:42;;;;;;;65.55;28.17;;;;;;;-146.25;100.00;52485.81;2079723;28;43727;-74
2023/01/20 02:25:32;;;;;;;66.70;29.27;;;;;;;-146.25;100.00;52516.22;2079585;28;40773;-75
2023/01/20 02:27:13;;;;;;;55.63;22.38;;;;;;;-146.25;100.00;52514.19;2071174;28;42158;-75
2023/01/20 02:28:47;;;;;;;60.83;26.35;;;;;;;-146.25;100.00;52502.03;2077271;28;41861;-75
2023/01/20 02:30:19;;;;;;;64.50;27.35;;;;;;;-146.25;100.00;52469.56;2079914;28;43169;-75
2023/01/20 02:31:44;;;;;;;59.42;25.70;;;;;;;-146.25;100.00;52520.28;2070917;28;39572;-75
2023/01/20 02:32:56;;;;;;;55.22;26.13;;;;;;;-146.25;100.00;52489.84;2074886;28;26386;-75
2023/01/20 02:34:28;;;;;;;65.15;27.10;;;;;;;-146.25;100.00;52479.72;2080962;28;20060;-76
2023/01/20 02:35:45;;;;;;;58.22;25.70;;;;;;;-146.25;100.00;52485.81;2079307;28;39129;-73
2023/01/20 02:37:03;;;;;;;61.85;25.20;;;;;;;-146.25;100.00;52497.97;2080748;28;20123;-75
2023/01/20 02:38:36;;;;;;;55.80;24.75;;;;;;;-146.25;100.00;52479.72;2079424;28;40378;-74
2023/01/20 02:39:46;;;;;;;61.10;26.15;;;;;;;-146.25;100.00;52489.84;2071055;28;40250;-74
2023/01/20 02:41:12;;;;;;;57.50;25.38;;;;;;;-146.25;100.00;52481.75;2076127;28;43325;-74
2023/01/20 02:42:29;;;;;;;54.92;25.55;;;;;;;-146.25;100.00;52453.34;2080016;28;39644;-75
2023/01/20 02:43:56;;;;;;;57.58;25.45;;;;;;;-146.25;100.00;52481.75;2078531;28;41891;-74
2023/01/20 02:45:08;;;;;;;50.78;23.38;;;;;;;-146.25;100.00;52469.56;2071958;28;20054;-76
2023/01/20 02:46:30;;;;;;;54.45;25.02;;;;;;;-146.25;100.00;52518.25;2074650;28;42600;-74
2023/01/20 02:48:09;;;;;;;53.13;23.50;;;;;;;-146.25;100.00;52483.78;2077095;28;20587;-74
2023/01/20 02:49:31;;;;;;;51.10;23.50;;;;;;;-146.25;100.00;52510.13;2079717;28;20046;-75
2023/01/20 02:50:42;;;;;;;48.80;23.38;;;;;;;-146.25;100.00;52477.69;2079938;28;39887;-75
2023/01/20 02:51:54;;;;;;;50.70;24.20;;;;;;;-146.25;100.00;52495.94;2079306;28;42703;-73
2023/01/20 02:53:01;;;;;;;48.83;23.85;;;;;;;-146.25;100.00;52504.03;2080170;28;21484;-74
2023/01/20 02:54:10;;;;;;;56.20;23.95;;;;;;;-146.25;100.00;52518.25;2070908;28;38722;-73
2023/01/20 02:55:27;;;;;;;48.65;23.92;;;;;;;-146.25;100.00;52526.34;2072916;28;41968;-76
2023/01/20 02:56:32;;;;;;;45.72;22.02;;;;;;;-146.25;100.00;52502.03;2072065;28;20042;-75
2023/01/20 02:57:50;;;;;;;54.88;23.52;;;;;;;-146.25;100.00;52510.13;2073533;28;41906;-75
2023/01/20 02:59:12;;;;;;;53.42;22.30;;;;;;;-146.25;100.00;52493.91;2071205;28;40451;-75
2023/01/20 03:00:24;;;;;;;49.58;23.27;;;;;;;-146.25;100.00;52471.59;2075211;28;40916;-75
2023/01/20 03:01:35;;;;;;;46.63;22.25;;;;;;;-146.25;100.00;52497.97;2087743;28;20056;-75
2023/01/20 03:02:40;;;;;;;46.85;23.15;;;;;;;-146.25;100.00;52493.91;2086377;28;38547;-75
2023/01/20 03:03:49;;;;;;;45.45;21.45;;;;;;;-146.25;100.00;52471.59;2079044;28;38427;-75
2023/01/20 03:05:02;;;;;;;47.58;21.80;;;;;;;-146.25;100.00;52467.56;2072507;28;41373;-75
2023/01/20 03:06:15;;;;;;;44.25;21.33;;;;;;;-146.25;100.00;52504.03;2080905;28;42661;-75
2023/01/20 03:07:23;;;;;;;49.63;22.23;;;;;;;-146.25;100.00;52504.03;2079202;28;39847;-75
2023/01/20 03:08:30;;;;;;;43.95;20.58;;;;;;;-146.25;100.00;52467.56;2064455;28;45157;-75
2023/01/20 03:09:40;;;;;;;45.47;22.23;;;;;;;-146.25;100.00;52510.13;2073257;28;20141;-75
2023/01/20 03:10:47;;;;;;;;;;;;;;;-146.25;100.00;52495.94;2077400;28;43117;-75
2023/01/20 03:11:56;;;;;;;39.90;19.13;;;;;;;-146.25;100.00;52497.97;2071884;28;34231;-75
2023/01/20 03:13:08;;;;;;;43.17;19.92;;;;;;;-146.25;100.00;52481.75;2071330;28;38766;-75
2023/01/20 03:14:14;;;;;;;44.22;19.73;;;;;;;-146.25;100.00;52516.22;2063000;28;41073;-75
2023/01/20 03:15:22;;;;;;;40.80;20.98;;;;;;;-146.25;100.00;52546.63;2056714;28;35650;-75
2023/01/20 03:16:26;;;;;;;43.65;20.27;;;;;;;-146.25;100.00;52518.25;2055081;28;41598;-75
2023/01/20 03:17:28;;;;;;;40.35;20.67;;;;;;;-146.25;100.00;52485.81;2070481;28;39016;-75
2023/01/20 03:18:32;;;;;;;43.00;21.67;;;;;;;-146.25;100.00;52520.28;2078806;28;38907;-75
2023/01/20 03:19:34;;;;;;;42.40;21.27;;;;;;;-146.25;100.00;52518.25;2078317;28;40901;-74
2023/01/20 03:20:36;;;;;;;43.63;21.30;;;;;;;-146.25;100.00;52485.81;2071481;28;38903;-75
2023/01/20 03:21:38;;;;;;;39.83;20.60;;;;;;;-146.25;100.00;52528.38;2071164;28;43042;-75
2023/01/20 03:22:40;;;;;;;41.47;20.80;;;;;;;-146.25;100.00;52477.69;2071045;28;38269;-76
2023/01/20 03:23:50;;;;;;;40.75;20.52;;;;;;;-146.25;100.00;52500.00;2070785;28;42204;-75
2023/01/20 03:24:53;;;;;;;39.40;20.35;;;;;;;-146.25;100.00;52479.72;2070913;28;38506;-74
2023/01/20 03:25:55;;;;;;;39.47;19.85;;;;;;;-146.25;100.00;52479.72;2072355;28;38317;-75
2023/01/20 03:26:58;;;;;;;44.45;20.55;;;;;;;-146.25;100.00;52481.75;2070272;28;41941;-74
2023/01/20 03:28:00;;;;;;;42.03;19.58;;;;;;;-146.25;100.00;52512.16;2063443;28;20046;-76
2023/01/20 03:29:14;;;;;;;36.65;20.35;;;;;;;-146.25;100.00;52528.38;2071667;28;36348;-74
2023/01/20 03:30:17;;;;;;;37.42;19.10;;;;;;;-146.25;100.00;52491.88;2071258;28;37535;-76
2023/01/20 03:31:25;;;;;;;38.35;20.00;;;;;;;-146.25;100.00;52483.78;2072456;28;20053;-74
2023/01/20 03:32:28;;;;;;;38.47;19.30;;;;;;;-146.25;100.00;52506.06;2060354;28;42662;-73
2023/01/20 03:33:29;;;;;;;37.20;19.15;;;;;;;-146.25;100.00;52463.50;2062627;28;38750;-75
2023/01/20 03:34:37;;;;;;;35.40;18.08;;;;;;;-146.25;100.00;52481.75;2071570;28;21143;-75
2023/01/20 03:35:39;;;;;;;37.45;18.73;;;;;;;-146.25;100.00;52518.25;2070816;28;43447;-75
2023/01/20 03:36:43;;;;;;;35.38;18.10;;;;;;;-146.25;100.00;52506.06;2071419;28;38168;-74
2023/01/20 03:37:45;;;;;;;34.13;18.30;;;;;;;-146.25;100.00;52510.13;2070501;28;38189;-75
2023/01/20 03:38:48;;;;;;;36.35;19.55;;;;;;;-146.25;100.00;52516.22;2070881;28;37719;-74
2023/01/20 03:39:51;;;;;;;35.22;18.45;;;;;;;-146.25;100.00;52475.66;2070651;28;38297;-74
2023/01/20 03:41:13;;;;;;;37.60;19.15;;;;;;;-146.25;100.00;52459.44;2078250;28;40661;-74
2023/01/20 03:42:32;;;;;;;32.75;17.58;;;;;;;-146.25;100.00;52532.44;2071185;28;24463;-74
2023/01/20 03:43:57;;;;;;;32.85;17.02;;;;;;;-146.25;100.00;52522.28;2075085;28;39500;-74
2023/01/20 03:45:18;;;;;;;31.58;17.42;;;;;;;-146.25;100.00;52449.31;2074596;28;43868;-74
2023/01/20 03:46:44;;;;;;;31.85;16.92;;;;;;;-146.25;100.00;52518.25;2070434;28;38204;-74
2023/01/20 03:48:31;;;;;;;33.42;16.10;;;;;;;-146.25;100.00;52510.13;2075780;28;43382;-74
2023/01/20 03:50:09;;;;;;;31.63;16.20;;;;;;;-146.25;100.00;52479.72;2070735;28;39168;-74
2023/01/20 03:51:30;;;;;;;30.92;15.13;;;;;;;-146.25;100.00;52489.84;2062703;28;43185;-74
2023/01/20 03:52:52;;;;;;;32.47;17.02;;;;;;;-146.25;100.00;52479.72;2069472;28;39519;-74
2023/01/20 03:54:12;;;;;;;32.60;17.00;;;;;;;-146.25;100.00;52481.75;2071199;28;35408;-73
2023/01/20 03:55:54;;;;;;;28.45;14.48;;;;;;;-146.25;100.00;52485.81;2062783;28;36569;-74
2023/01/20 03:57:05;;;;;;;30.90;15.80;;;;;;;-146.25;100.00;52493.91;2070219;28;41031;-73
2023/01/20 03:58:12;;;;;;;35.03;17.33;;;;;;;-146.25;100.00;52508.09;2062714;28;38667;-73
2023/01/20 03:59:16;;;;;;;32.00;15.35;;;;;;;-146.25;100.00;52524.31;2064632;28;39481;-74
2023/01/20 04:00:24;;;;;;;29.35;16.10;;;;;;;-146.25;100.00;52502.03;2070646;28;37798;-73
2023/01/20 04:01:35;;;;;;;29.63;15.18;;;;;;;-146.25;99.95;52493.91;2062245;28;44326;-74
2023/01/20 04:02:39;;;;;;;29.77;16.08;;;;;;;-146.25;99.95;52504.03;2065045;28;20818;-74
2023/01/20 04:03:46;;;;;;;29.45;16.80;;;;;;;-146.25;100.00;52510.13;2071675;28;42446;-74
2023/01/20 04:04:49;;;;;;;30.52;16.15;;;;;;;-146.25;100.00;52508.09;2071159;28;39362;-74
2023/01/20 04:05:51;;;;;;;29.58;16.50;;;;;;;-146.25;99.81;52479.72;2071536;28;39761;-74
2023/01/20 04:06:53;;;;;;;29.80;15.93;;;;;;;-146.25;99.96;52518.25;2062334;28;38780;-74
2023/01/20 04:07:58;;;;;;;28.17;16.23;;;;;;;-146.25;99.85;52479.72;2062613;28;37981;-74
2023/01/20 04:09:21;;;;;;;27.95;14.80;;;;;;;-146.25;100.00;52508.09;2071008;28;39884;-74
2023/01/20 04:10:26;;;;;;;28.23;14.77;;;;;;;-146.25;99.96;52493.91;2063466;28;20043;-73
2023/01/20 04:11:28;;;;;;;28.40;15.73;;;;;;;-146.25;99.80;52485.81;2065227;28;40412;-74
2023/01/20 04:12:29;;;;;;;28.17;15.27;;;;;;;-146.25;99.70;52493.91;2076073;28;39391;-74
2023/01/20 04:13:31;;;;;;;29.27;15.80;;;;;;;-146.25;99.61;52512.16;2078613;28;39794;-74
2023/01/20 04:14:34;;;;;;;27.35;16.20;;;;;;;-146.25;99.49;52471.59;2070678;28;37566;-74
2023/01/20 04:15:43;;;;;;;27.80;15.43;;;;;;;-146.25;99.52;52489.84;2071404;28;25896;-74
2023/01/20 04:16:58;;;;;;;27.85;15.70;;;;;;;-146.25;99.46;52546.63;2079007;28;38381;-74
2023/01/20 04:18:19;;;;;;;28.45;16.10;;;;;;;-146.25;99.40;52520.28;2073119;28;40369;-74
2023/01/20 04:19:21;;;;;;;29.77;15.55;;;;;;;-146.25;99.29;52502.03;2079018;28;37683;-74
2023/01/20 04:20:23;;;;;;;25.83;14.98;;;;;;;-146.25;99.24;52514.19;2079084;28;37236;-73
2023/01/20 04:21:44;;;;;;;29.40;15.95;;;;;;;-146.25;99.31;52514.19;2078717;28;40618;-74
2023/01/20 04:22:56;;;;;;;32.40;15.57;;;;;;;-146.25;99.20;52485.81;2070864;28;39863;-74
2023/01/20 04:24:13;;;;;;;29.10;15.20;;;;;;;-146.25;99.03;52457.41;2072146;28;43579;-73
2023/01/20 04:25:29;;;;;;;27.85;15.63;;;;;;;-146.25;99.08;52518.25;2078747;28;40342;-74
2023/01/20 04:26:31;;;;;;;29.60;15.50;;;;;;;-146.25;99.21;52516.22;2070907;28;39093;-73
2023/01/20 04:27:33;;;;;;;30.63;15.93;;;;;;;-146.25;99.13;52489.84;2070838;28;41166;-74
2023/01/20 04:28:34;;;;;;;30.30;16.13;;;;;;;-146.25;99.06;52489.84;2080403;28;20101;-73
2023/01/20 04:29:40;;;;;;;31.77;16.50;;;;;;;-146.25;99.15;52530.41;2079394;28;36025;-74
2023/01/20 04:30:42;;;;;;;30.00;15.65;;;;;;;-146.25;99.21;52502.03;2078778;28;36667;-74
2023/01/20 04:31:43;;;;;;;27.77;15.90;;;;;;;-146.25;99.13;52510.13;2078587;28;37232;-74
2023/01/20 04:32:45;;;;;;;29.30;15.75;;;;;;;-146.25;99.24;52469.56;2078382;28;38390;-74
2023/01/20 04:33:47;;;;;;;29.77;15.77;;;;;;;-146.25;99.11;52473.63;2070715;28;20895;-73
2023/01/20 04:34:52;;;;;;;29.15;15.10;;;;;;;-146.25;99.09;52491.88;2070575;28;40473;-73
2023/01/20 04:35:54;;;;;;;28.92;16.10;;;;;;;-146.25;99.24;52538.53;2078933;28;38839;-74
2023/01/20 04:36:55;;;;;;;27.45;15.85;;;;;;;-146.25;99.09;52522.28;2079399;28;38688;-74
2023/01/20 04:37:59;;;;;;;27.65;15.43;;;;;;;-146.25;99.08;52479.72;2079071;28;41322;-74
2023/01/20 04:39:02;;;;;;;31.33;17.48;;;;;;;-146.25;99.12;52506.06;2080372;28;20080;-74
2023/01/20 04:40:05;;;;;;;31.67;16.60;;;;;;;-146.25;99.06;52465.53;2078464;28;40434;-74
2023/01/20 04:41:11;;;;;;;27.90;16.10;;;;;;;-146.25;99.03;52479.72;2078871;28;36089;-73
2023/01/20 04:42:13;;;;;;;24.85;15.15;;;;;;;-146.25;99.08;52512.16;2078571;28;39255;-73
2023/01/20 04:43:14;;;;;;;28.33;16.13;;;;;;;-146.25;98.93;52491.88;2079103;28;39938;-74
2023/01/20 04:44:16;;;;;;;27.35;15.70;;;;;;;-146.25;99.26;52475.66;2081355;28;20121;-74
2023/01/20 04:45:18;;;;;;;28.88;16.23;;;;;;;-146.25;99.10;52500.00;2079819;28;34288;-74
2023/01/20 04:46:20;;;;;;;28.95;15.50;;;;;;;-146.25;98.96;52469.56;2079866;28;38207;-74
2023/01/20 04:47:24;;;;;;;27.63;15.48;;;;;;;-146.25;98.98;52522.28;2081360;28;20049;-73
2023/01/20 04:48:25;;;;;;;28.40;15.88;;;;;;;-146.25;99.00;52489.84;2079547;28;40029;-74
2023/01/20 04:49:27;;;;;;;28.85;16.00;;;;;;;-146.25;99.03;52518.25;2080286;28;37108;-73
2023/01/20 04:50:29;;;;;;;27.20;15.60;;;;;;;-146.25;98.97;52477.69;2080724;28;37638;-73
2023/01/20 04:51:35;;;;;;;29.92;16.65;;;;;;;-146.25;98.92;52526.34;2080814;28;39689;-73
2023/01/20 04:52:37;;;;;;;27.63;16.50;;;;;;;-146.25;98.83;52473.63;2080671;28;20134;-73
2023/01/20 04:53:40;;;;;;;27.25;16.27;;;;;;;-146.25;98.79;52491.88;2071903;28;37022;-73
2023/01/20 04:54:42;;;;;;;30.20;16.38;;;;;;;-146.25;98.68;52487.81;2071996;28;39611;-75
2023/01/20 04:55:45;;;;;;;26.80;15.45;;;;;;;-146.25;98.68;52502.03;2080558;28;37133;-73
2023/01/20 04:56:48;;;;;;;25.85;15.15;;;;;;;-146.25;98.49;52520.28;2071747;28;39621;-73
2023/01/20 04:57:49;;;;;;;27.75;15.77;;;;;;;-146.25;98.83;52500.00;2072649;28;20073;-74
2023/01/20 04:58:51;;;;;;;33.33;16.23;;;;;;;-146.25;98.68;52495.94;2080583;28;40655;-74
2023/01/20 04:59:53;;;;;;;26.63;15.48;;;;;;;-146.25;98.85;52473.63;2080823;28;38422;-74
2023/01/20 05:00:55;;;;;;;27.58;15.43;;;;;;;-146.25;98.68;52483.78;2080688;28;39490;-74